Time;durP1;ratioP1;P1;durP2;ratioP2;P2;SDS_P1;SDS_P2;PMS_P1;PMS_P2;Temp;Humidity;BMP_temperature;BMP_pressure;BME280_temperature;BME280_humidity;BME280_pressure;Samples;Min_cycle;Max_cycle;Signal;HPM_P1;HPM_P2
2021/08/06 00:00:06;;;;;;;1.95;1.85;;;19.20;85.50;;;;;;5056516;28;20193;-93
2021/08/06 00:02:32;;;;;;;2.13;2.03;;;19.20;85.80;;;;;;5058545;28;20200;-90
2021/08/06 00:04:58;;;;;;;2.83;1.85;;;19.20;85.20;;;;;;5058538;28;20368;-91
2021/08/06 00:07:24;;;;;;;2.72;2.20;;;19.20;84.80;;;;;;5055442;28;20185;-92
2021/08/06 00:09:50;;;;;;;1.90;1.80;;;19.20;85.00;;;;;;5057712;28;20201;-92
2021/08/06 00:12:16;;;;;;;1.80;1.70;;;19.20;85.20;;;;;;5048651;28;20183;-92
2021/08/06 00:14:42;;;;;;;2.63;1.90;;;19.30;85.40;;;;;;5047535;28;20313;-92
2021/08/06 00:17:07;;;;;;;2.05;1.70;;;19.30;85.70;;;;;;5049148;28;20269;-89
2021/08/06 00:19:33;;;;;;;1.77;1.67;;;19.20;85.50;;;;;;5027801;28;20201;-93
2021/08/06 00:21:59;;;;;;;3.28;1.98;;;19.20;85.20;;;;;;5057964;28;20184;-92
2021/08/06 00:24:25;;;;;;;1.60;1.60;;;19.10;84.30;;;;;;5042616;28;20215;-92
2021/08/06 00:26:51;;;;;;;3.92;1.80;;;18.90;85.20;;;;;;5034821;28;20182;-92
2021/08/06 00:29:18;;;;;;;1.90;1.80;;;18.90;85.90;;;;;;5047295;28;20203;-90
2021/08/06 00:31:44;;;;;;;3.33;1.90;;;18.90;85.70;;;;;;5034361;28;20193;-92
2021/08/06 00:34:09;;;;;;;1.88;1.77;;;18.90;85.40;;;;;;5047720;28;20254;-92
2021/08/06 00:36:35;;;;;;;1.90;1.80;;;18.90;85.30;;;;;;5048946;28;20210;-91
2021/08/06 00:39:01;;;;;;;1.85;1.73;;;18.90;85.40;;;;;;5040906;28;20184;-91
2021/08/06 00:41:26;;;;;;;2.10;1.90;;;18.90;85.40;;;;;;5057028;28;20193;-92
2021/08/06 00:43:52;;;;;;;2.05;1.58;;;18.90;85.70;;;;;;5027714;28;20710;-92
2021/08/06 00:46:18;;;;;;;1.80;1.70;;;19.00;85.40;;;;;;5048838;28;20255;-92
2021/08/06 00:48:44;;;;;;;2.05;1.90;;;18.80;84.70;;;;;;5036589;28;20215;-92
2021/08/06 00:51:10;;;;;;;1.80;1.70;;;18.60;85.90;;;;;;5042517;28;20251;-92
2021/08/06 00:53:37;;;;;;;1.95;1.85;;;18.60;86.40;;;;;;5047913;28;20227;-91
2021/08/06 00:56:04;;;;;;;1.90;1.80;;;18.50;86.90;;;;;;5056843;28;20270;-93
2021/08/06 00:58:30;;;;;;;2.10;1.90;;;18.50;87.10;;;;;;5042545;28;20184;-92
2021/08/06 01:00:55;;;;;;;1.98;1.85;;;18.60;87.10;;;;;;5026628;28;20261;-91
2021/08/06 01:04:05;;;;;;;1.90;1.80;;;18.70;87.00;;;;;;5058708;28;20223;-91
2021/08/06 01:06:41;;;;;;;1.90;1.80;;;18.80;86.60;;;;;;5027604;28;20586;-92
2021/08/06 01:09:31;;;;;;;3.05;1.88;;;18.80;86.20;;;;;;5054603;28;20181;-92
2021/08/06 01:12:04;;;;;;;2.00;1.60;;;18.80;86.10;;;;;;5047002;28;20219;-91
2021/08/06 01:14:29;;;;;;;1.90;1.80;;;18.80;85.60;;;;;;5057586;28;20196;-91
2021/08/06 01:16:58;;;;;;;1.92;1.73;;;18.80;85.10;;;;;;5054884;28;20236;-92
2021/08/06 01:19:51;;;;;;;3.28;1.70;;;18.80;85.20;;;;;;5055036;28;20185;-92
2021/08/06 01:22:24;;;;;;;1.90;1.80;;;18.90;84.80;;;;;;5053119;28;20184;-92
2021/08/06 01:25:02;;;;;;;1.90;1.67;;;18.80;85.00;;;;;;5059465;28;20209;-91
2021/08/06 01:27:29;;;;;;;2.35;1.98;;;18.80;85.10;;;;;;5053874;28;20237;-93
2021/08/06 01:29:54;;;;;;;2.58;1.70;;;18.70;85.70;;;;;;5054196;28;20192;-91
2021/08/06 01:32:20;;;;;;;2.80;1.70;;;18.70;86.10;;;;;;5045204;28;20199;-90
2021/08/06 01:34:46;;;;;;;3.72;2.00;;;18.80;86.60;;;;;;5061143;28;20251;-92
2021/08/06 01:37:11;;;;;;;1.98;1.88;;;18.80;86.10;;;;;;5050994;28;20233;-92
2021/08/06 01:39:38;;;;;;;2.10;1.90;;;18.80;85.90;;;;;;5048902;28;20188;-92
2021/08/06 01:42:25;;;;;;;2.00;1.80;;;18.90;85.50;;;;;;5060713;28;20188;-92
2021/08/06 01:44:52;;;;;;;2.63;2.00;;;18.90;85.50;;;;;;5043056;28;20364;-92
2021/08/06 01:47:25;;;;;;;1.80;1.70;;;18.90;85.50;;;;;;5037316;28;20200;-92
2021/08/06 01:50:01;;;;;;;2.05;1.90;;;18.90;85.20;;;;;;5028284;28;20207;-92
2021/08/06 01:52:48;;;;;;;2.55;2.10;;;19.00;85.20;;;;;;5043991;28;20339;-89
2021/08/06 01:55:17;;;;;;;1.95;1.55;;;18.80;85.40;;;;;;5059880;28;20189;-91
2021/08/06 01:57:49;;;;;;;2.20;1.80;;;18.70;86.20;;;;;;5021976;28;20190;-92
2021/08/06 02:00:15;;;;;;;1.95;1.80;;;18.70;86.30;;;;;;5045603;28;20187;-92
2021/08/06 02:02:41;;;;;;;1.92;1.80;;;18.80;86.10;;;;;;5042095;28;20660;-93
2021/08/06 02:05:10;;;;;;;2.80;1.92;;;18.70;86.50;;;;;;5035186;28;20201;-93
2021/08/06 02:07:35;;;;;;;3.45;2.03;;;18.70;87.30;;;;;;5057411;28;20191;-92
2021/08/06 02:10:03;;;;;;;2.33;2.13;;;18.60;86.70;;;;;;5025097;28;20182;-91
2021/08/06 02:12:29;;;;;;;3.17;2.03;;;18.50;87.80;;;;;;5057432;28;20199;-92
2021/08/06 02:14:54;;;;;;;2.88;2.50;;;18.50;87.70;;;;;;5041407;28;20208;-92
2021/08/06 02:17:22;;;;;;;4.75;2.03;;;18.50;87.40;;;;;;5043779;28;20234;-92
2021/08/06 02:19:48;;;;;;;2.28;2.08;;;18.40;87.60;;;;;;5059915;28;20216;-92
2021/08/06 02:22:16;;;;;;;2.55;2.35;;;18.50;88.00;;;;;;5038392;28;20188;-93
2021/08/06 02:24:43;;;;;;;2.40;2.20;;;18.50;88.00;;;;;;5043394;28;20238;-91
2021/08/06 02:27:12;;;;;;;2.22;2.03;;;18.60;86.80;;;;;;5043374;28;20191;-92
2021/08/06 02:29:39;;;;;;;2.75;2.15;;;18.70;86.80;;;;;;5035952;28;20208;-92
2021/08/06 02:32:06;;;;;;;3.20;1.90;;;18.70;87.90;;;;;;5049505;28;20195;-92
2021/08/06 02:34:32;;;;;;;1.85;1.75;;;18.60;87.80;;;;;;5059626;28;20239;-93
2021/08/06 02:36:59;;;;;;;2.17;1.92;;;18.70;87.70;;;;;;5049879;28;20224;-91
2021/08/06 02:39:28;;;;;;;2.30;2.17;;;18.70;87.50;;;;;;5048774;28;20184;-93
2021/08/06 02:41:58;;;;;;;2.00;1.90;;;18.80;86.90;;;;;;5059222;28;20207;-92
2021/08/06 02:44:24;;;;;;;2.63;2.20;;;18.80;86.50;;;;;;5058333;28;20196;-93
2021/08/06 02:46:50;;;;;;;2.72;2.25;;;18.90;87.00;;;;;;5030177;28;20260;-93
2021/08/06 02:49:15;;;;;;;2.90;2.00;;;18.90;87.70;;;;;;5043734;28;20180;-92
2021/08/06 02:51:41;;;;;;;2.42;2.22;;;18.80;88.00;;;;;;5025357;28;20609;-92
2021/08/06 02:54:07;;;;;;;2.10;1.90;;;18.80;88.40;;;;;;5052670;28;20219;-92
2021/08/06 02:56:34;;;;;;;4.30;2.15;;;18.80;88.60;;;;;;5058030;28;20215;-92
2021/08/06 02:58:59;;;;;;;3.55;2.20;;;18.60;89.50;;;;;;5058928;28;20248;-93
2021/08/06 03:01:25;;;;;;;2.78;2.30;;;18.60;88.30;;;;;;5053924;28;20263;-92
2021/08/06 03:03:51;;;;;;;2.40;2.20;;;18.70;88.80;;;;;;5054497;28;20229;-92
2021/08/06 03:06:16;;;;;;;2.00;1.90;;;18.60;89.50;;;;;;5017858;28;20200;-92
2021/08/06 03:08:42;;;;;;;2.20;2.00;;;18.60;89.50;;;;;;5041296;28;20191;-90
2021/08/06 03:11:08;;;;;;;3.08;2.20;;;18.50;89.20;;;;;;5062938;28;20208;-91
2021/08/06 03:13:33;;;;;;;3.30;2.30;;;18.60;88.70;;;;;;5036975;28;20789;-90
2021/08/06 03:15:59;;;;;;;4.82;2.17;;;18.60;88.20;;;;;;5023562;28;20315;-90
2021/08/06 03:18:25;;;;;;;3.30;2.25;;;18.60;89.40;;;;;;5049504;28;20192;-92
2021/08/06 03:20:51;;;;;;;4.18;2.22;;;18.60;89.90;;;;;;5042169;28;20230;-93
2021/08/06 03:23:16;;;;;;;2.42;2.22;;;18.60;90.00;;;;;;5041775;28;20217;-92
2021/08/06 03:25:42;;;;;;;2.90;2.30;;;18.60;89.40;;;;;;5019875;28;20203;-92
2021/08/06 03:28:08;;;;;;;2.38;2.17;;;18.70;89.90;;;;;;5024584;28;20194;-92
2021/08/06 03:30:34;;;;;;;3.08;2.33;;;18.70;89.90;;;;;;5037708;28;20184;-90
2021/08/06 03:32:59;;;;;;;3.85;2.10;;;18.70;90.50;;;;;;5052832;28;20230;-91
2021/08/06 03:35:25;;;;;;;3.78;2.80;;;18.70;90.40;;;;;;5050680;28;20236;-91
2021/08/06 03:37:51;;;;;;;4.82;2.50;;;18.80;90.20;;;;;;5056543;28;20240;-91
2021/08/06 03:40:17;;;;;;;3.55;2.50;;;18.80;90.40;;;;;;5023336;28;20197;-91
2021/08/06 03:42:43;;;;;;;2.95;2.65;;;18.70;90.40;;;;;;5046023;28;20917;-91
2021/08/06 03:45:10;;;;;;;4.13;2.38;;;18.50;90.90;;;;;;5052069;28;20197;-91
2021/08/06 03:47:36;;;;;;;3.13;2.60;;;18.40;92.00;;;;;;5041019;28;20802;-91
2021/08/06 03:50:03;;;;;;;3.85;2.50;;;18.40;91.20;;;;;;5050936;28;20207;-91
2021/08/06 03:52:29;;;;;;;2.65;2.45;;;18.30;91.30;;;;;;5056867;28;20192;-92
2021/08/06 03:54:54;;;;;;;3.15;2.47;;;18.10;93.00;;;;;;5058904;28;20224;-91
2021/08/06 03:57:20;;;;;;;4.97;2.40;;;17.90;93.70;;;;;;5034814;28;20241;-90
2021/08/06 03:59:46;;;;;;;4.72;2.65;;;17.70;94.60;;;;;;5057159;28;20243;-90
2021/08/06 04:02:11;;;;;;;2.85;2.65;;;17.80;94.60;;;;;;5042513;28;20226;-90
2021/08/06 04:04:37;;;;;;;3.05;2.85;;;17.70;94.90;;;;;;5030948;28;20219;-90
2021/08/06 04:07:03;;;;;;;3.83;2.80;;;17.60;95.50;;;;;;5012006;28;20262;-90
2021/08/06 04:09:29;;;;;;;3.13;2.83;;;17.60;96.40;;;;;;5040184;28;20274;-90
2021/08/06 04:11:54;;;;;;;2.97;2.67;;;17.50;97.20;;;;;;5056556;28;20196;-91
2021/08/06 04:14:20;;;;;;;3.85;2.88;;;17.40;97.50;;;;;;5034153;28;20214;-91
2021/08/06 04:16:47;;;;;;;3.05;2.80;;;17.50;97.30;;;;;;5047118;28;20203;-91
2021/08/06 04:19:13;;;;;;;3.53;2.70;;;17.40;98.00;;;;;;5040095;28;20668;-91
2021/08/06 04:21:39;;;;;;;3.22;2.80;;;17.40;97.50;;;;;;5052786;28;20209;-91
2021/08/06 04:24:05;;;;;;;3.03;2.58;;;17.40;97.80;;;;;;5056217;28;20267;-90
2021/08/06 04:26:31;;;;;;;4.47;3.10;;;17.40;98.00;;;;;;5041026;28;20199;-90
2021/08/06 04:28:56;;;;;;;3.53;2.70;;;17.40;97.70;;;;;;5058453;28;20193;-90
2021/08/06 04:31:22;;;;;;;3.87;2.97;;;17.40;97.60;;;;;;5039030;28;20212;-90
2021/08/06 04:33:47;;;;;;;3.40;3.10;;;17.10;98.40;;;;;;5042949;28;20217;-90
2021/08/06 04:36:13;;;;;;;4.20;3.17;;;17.00;99.90;;;;;;5060356;28;20257;-91
2021/08/06 04:38:39;;;;;;;3.47;3.17;;;17.10;99.90;;;;;;5042104;28;20224;-91
2021/08/06 04:41:05;;;;;;;4.07;3.10;;;17.10;99.60;;;;;;5058141;28;20204;-91
2021/08/06 04:43:31;;;;;;;3.53;2.93;;;17.10;99.90;;;;;;5056428;28;20227;-91
2021/08/06 04:45:56;;;;;;;5.03;3.10;;;17.00;99.90;;;;;;5058764;28;20224;-91
2021/08/06 04:48:23;;;;;;;3.80;2.87;;;17.10;99.90;;;;;;5007151;28;20189;-91
2021/08/06 04:50:49;;;;;;;3.53;3.23;;;17.10;99.90;;;;;;5055736;28;20185;-88
2021/08/06 04:53:15;;;;;;;2.93;2.73;;;17.10;99.90;;;;;;5029314;28;20317;-89
2021/08/06 04:55:41;;;;;;;3.40;2.77;;;17.10;99.90;;;;;;5057825;28;20251;-88
2021/08/06 04:58:07;;;;;;;3.20;2.80;;;17.20;99.90;;;;;;5059469;28;20192;-89
2021/08/06 05:00:33;;;;;;;3.20;2.90;;;17.10;99.70;;;;;;5051063;28;20193;-89
2021/08/06 05:02:58;;;;;;;3.40;3.10;;;17.10;99.40;;;;;;5054173;28;20239;-88
2021/08/06 05:05:24;;;;;;;4.53;2.80;;;17.10;99.20;;;;;;5051160;28;20206;-88
2021/08/06 05:07:52;;;;;;;3.20;2.90;;;17.00;99.90;;;;;;5026559;28;20197;-88
2021/08/06 05:10:19;;;;;;;4.30;2.87;;;17.00;99.90;;;;;;5054751;28;20201;-88
2021/08/06 05:12:45;;;;;;;3.17;2.87;;;17.00;99.90;;;;;;5048073;28;20204;-89
2021/08/06 05:15:11;;;;;;;3.53;2.80;;;17.10;99.90;;;;;;5032031;28;20197;-89
2021/08/06 05:17:36;;;;;;;3.77;3.13;;;17.20;99.50;;;;;;5055627;28;20274;-89
2021/08/06 05:20:04;;;;;;;4.07;2.67;;;17.30;98.60;;;;;;5050941;28;20240;-89
2021/08/06 05:22:30;;;;;;;3.33;3.10;;;17.40;99.20;;;;;;5043103;28;20186;-89
2021/08/06 05:24:56;;;;;;;2.73;2.53;;;17.40;99.60;;;;;;5056128;28;20264;-89
2021/08/06 05:27:21;;;;;;;4.07;2.63;;;17.50;98.00;;;;;;5037849;28;20208;-89
2021/08/06 05:29:47;;;;;;;3.40;3.07;;;17.60;97.30;;;;;;5045204;28;20212;-88
2021/08/06 05:32:13;;;;;;;3.23;2.90;;;17.70;97.50;;;;;;5049188;28;20688;-89
2021/08/06 05:34:39;;;;;;;5.45;3.53;;;17.70;99.10;;;;;;5044161;28;20223;-88
2021/08/06 05:37:05;;;;;;;3.67;3.37;;;17.60;98.40;;;;;;5055943;28;20212;-88
2021/08/06 05:39:31;;;;;;;3.13;2.93;;;17.60;98.00;;;;;;5054969;28;20185;-88
2021/08/06 05:41:57;;;;;;;4.93;3.00;;;17.60;98.00;;;;;;5035804;28;20190;-89
2021/08/06 05:44:22;;;;;;;3.10;2.83;;;17.60;98.20;;;;;;5057179;28;20246;-89
2021/08/06 05:46:48;;;;;;;4.77;2.90;;;17.60;97.70;;;;;;5030296;28;20195;-88
2021/08/06 05:49:17;;;;;;;3.78;3.47;;;17.60;98.20;;;;;;5056607;28;20207;-89
2021/08/06 05:51:42;;;;;;;4.40;3.20;;;17.70;99.20;;;;;;5052968;28;20583;-89
2021/08/06 05:54:08;;;;;;;3.40;2.90;;;17.90;97.70;;;;;;5044070;28;20222;-89
2021/08/06 05:56:34;;;;;;;3.07;2.77;;;18.10;97.90;;;;;;5039027;28;20226;-89
2021/08/06 05:58:59;;;;;;;4.73;3.30;;;17.90;98.70;;;;;;5056248;28;20231;-89
2021/08/06 06:01:25;;;;;;;5.90;3.10;;;17.90;99.10;;;;;;5053789;28;20181;-88
2021/08/06 06:03:51;;;;;;;3.00;2.80;;;18.00;98.70;;;;;;5051890;28;20214;-87
2021/08/06 06:06:17;;;;;;;3.90;3.10;;;17.90;98.50;;;;;;5051631;28;20672;-87
2021/08/06 06:08:42;;;;;;;4.57;2.97;;;17.80;98.70;;;;;;5028923;28;20184;-87
2021/08/06 06:11:08;;;;;;;3.40;3.03;;;17.70;98.60;;;;;;5043494;28;20219;-87
2021/08/06 06:13:35;;;;;;;3.73;2.93;;;17.80;98.10;;;;;;5032098;28;20203;-87
2021/08/06 06:16:01;;;;;;;3.47;3.27;;;17.70;98.70;;;;;;5036281;28;20234;-88
2021/08/06 06:18:27;;;;;;;3.07;2.50;;;17.80;99.00;;;;;;5055638;28;20654;-88
2021/08/06 06:20:53;;;;;;;4.03;2.87;;;17.80;98.10;;;;;;5035711;28;20232;-88
2021/08/06 06:23:19;;;;;;;3.07;2.77;;;17.80;99.90;;;;;;5037370;28;20201;-87
2021/08/06 06:25:44;;;;;;;2.53;2.33;;;17.90;98.10;;;;;;5056807;28;20181;-88
2021/08/06 06:28:10;;;;;;;4.27;2.50;;;17.90;98.40;;;;;;5055963;28;20609;-87
2021/08/06 06:30:36;;;;;;;3.03;2.57;;;17.80;99.50;;;;;;5049916;28;20244;-87
2021/08/06 06:33:04;;;;;;;3.20;2.40;;;17.60;98.70;;;;;;5043276;28;20231;-88
2021/08/06 06:35:31;;;;;;;2.50;2.30;;;17.60;99.60;;;;;;5038113;28;20215;-87
2021/08/06 06:37:57;;;;;;;2.47;2.30;;;17.70;99.60;;;;;;5016394;28;20192;-87
2021/08/06 06:40:24;;;;;;;2.03;1.80;;;17.70;99.50;;;;;;5046787;28;20194;-90
2021/08/06 06:42:50;;;;;;;2.53;2.33;;;17.60;98.00;;;;;;5039965;28;20267;-88
2021/08/06 06:45:17;;;;;;;2.53;2.33;;;17.60;99.60;;;;;;5056024;28;20208;-88
2021/08/06 06:47:47;;;;;;;2.40;2.20;;;17.70;99.10;;;;;;5033558;28;20216;-87
2021/08/06 06:50:16;;;;;;;3.20;2.20;;;17.60;99.50;;;;;;5054808;28;20273;-87
2021/08/06 06:52:43;;;;;;;2.43;2.23;;;17.80;98.60;;;;;;5055121;28;20278;-88
2021/08/06 06:55:10;;;;;;;2.53;2.30;;;17.80;99.30;;;;;;5028024;28;20570;-88
2021/08/06 06:57:45;;;;;;;2.20;2.00;;;17.70;99.00;;;;;;5043312;28;20188;-91
2021/08/06 07:00:12;;;;;;;3.33;1.97;;;17.70;99.90;;;;;;5034816;28;20187;-88
2021/08/06 07:02:39;;;;;;;2.30;2.20;;;17.80;99.70;;;;;;5035360;28;20196;-87
2021/08/06 07:05:05;;;;;;;3.53;2.40;;;17.80;99.50;;;;;;5056348;28;20251;-88
2021/08/06 07:07:31;;;;;;;2.07;1.97;;;17.80;98.90;;;;;;5022237;28;20610;-88
2021/08/06 07:09:57;;;;;;;2.37;2.17;;;17.90;99.30;;;;;;5052848;28;20237;-88
2021/08/06 07:12:23;;;;;;;2.60;2.40;;;18.00;98.60;;;;;;5048331;28;20676;-88
2021/08/06 07:14:48;;;;;;;4.40;2.43;;;18.00;98.70;;;;;;5041113;28;20223;-88
2021/08/06 07:19:39;;;;;;;4.27;2.37;;;18.00;98.70;;;;;;5082196;23;20240;-91
2021/08/06 07:22:05;;;;;;;2.67;2.47;;;18.00;99.40;;;;;;5045235;28;20186;-91
2021/08/06 07:24:31;;;;;;;3.47;2.40;;;17.90;98.50;;;;;;5072409;28;20187;-92
2021/08/06 07:26:57;;;;;;;2.67;2.47;;;18.00;98.10;;;;;;5062885;28;20191;-91
2021/08/06 07:29:23;;;;;;;2.67;2.47;;;18.10;98.20;;;;;;5074625;28;20211;-91
2021/08/06 07:31:49;;;;;;;2.77;2.57;;;18.10;97.50;;;;;;5069039;28;20191;-90
2021/08/06 07:34:14;;;;;;;4.03;2.37;;;18.20;97.80;;;;;;5051665;28;20192;-91
2021/08/06 07:36:40;;;;;;;3.40;2.60;;;18.10;96.10;;;;;;5068845;28;20211;-90
2021/08/06 07:39:06;;;;;;;3.60;2.47;;;18.20;96.80;;;;;;5050881;28;20538;-90
2021/08/06 07:41:32;;;;;;;3.53;2.30;;;18.30;95.30;;;;;;5069041;28;20172;-91
2021/08/06 07:43:58;;;;;;;2.50;2.30;;;18.40;94.60;;;;;;5050457;28;20191;-91
2021/08/06 07:46:24;;;;;;;2.47;2.27;;;18.30;94.70;;;;;;5067389;28;20185;-90
2021/08/06 07:48:51;;;;;;;4.23;2.40;;;18.30;95.20;;;;;;5034126;28;20570;-91
2021/08/06 07:51:16;;;;;;;2.80;2.50;;;18.40;95.10;;;;;;5061186;28;20208;-91
2021/08/06 07:53:42;;;;;;;3.00;2.70;;;18.40;96.40;;;;;;5049477;28;20841;-90
2021/08/06 07:56:08;;;;;;;2.40;2.20;;;18.40;95.70;;;;;;5049373;28;20569;-91
2021/08/06 07:58:34;;;;;;;2.07;1.97;;;18.50;94.30;;;;;;5030603;28;20293;-90
2021/08/06 08:01:00;;;;;;;2.93;2.33;;;18.60;93.00;;;;;;5034883;28;20750;-90
2021/08/06 08:03:25;;;;;;;3.17;2.20;;;18.50;93.70;;;;;;5047922;28;20196;-90
2021/08/06 08:05:51;;;;;;;3.83;2.28;;;18.60;94.10;;;;;;5053458;28;20280;-91
2021/08/06 08:08:17;;;;;;;2.40;2.20;;;18.70;92.90;;;;;;5031603;28;20213;-90
2021/08/06 08:10:42;;;;;;;2.53;2.20;;;18.60;93.30;;;;;;5048583;28;20186;-90
2021/08/06 08:13:08;;;;;;;2.67;2.30;;;18.60;93.70;;;;;;5040526;28;20193;-89
2021/08/06 08:15:34;;;;;;;3.13;2.10;;;18.70;93.80;;;;;;5062375;28;20199;-90
2021/08/06 08:18:00;;;;;;;2.28;2.08;;;18.70;93.10;;;;;;5084385;28;20323;-90
2021/08/06 08:20:25;;;;;;;2.55;2.22;;;18.90;93.30;;;;;;5056552;28;20269;-90
2021/08/06 08:22:51;;;;;;;2.13;1.93;;;18.90;93.60;;;;;;5062751;28;20199;-89
2021/08/06 08:25:17;;;;;;;2.38;2.17;;;19.00;91.90;;;;;;5069404;28;20197;-89
2021/08/06 08:27:43;;;;;;;2.88;2.30;;;19.20;90.80;;;;;;5045979;28;20232;-90
2021/08/06 08:30:10;;;;;;;2.17;2.03;;;19.20;90.60;;;;;;5060816;28;20221;-90
2021/08/06 08:32:37;;;;;;;1.90;1.80;;;19.40;90.20;;;;;;5038166;28;20258;-90
2021/08/06 08:35:04;;;;;;;2.88;2.28;;;19.60;88.50;;;;;;5051714;28;20197;-90
2021/08/06 08:37:30;;;;;;;2.92;2.58;;;19.40;87.60;;;;;;5048902;28;20207;-89
2021/08/06 08:39:56;;;;;;;2.63;1.98;;;19.40;90.00;;;;;;5040653;28;20278;-89
2021/08/06 08:42:22;;;;;;;2.20;2.00;;;19.60;88.20;;;;;;5022131;28;20185;-89
2021/08/06 08:44:49;;;;;;;2.78;2.30;;;19.60;87.60;;;;;;5038370;28;20195;-90
2021/08/06 08:47:20;;;;;;;2.58;2.30;;;19.60;87.20;;;;;;5024357;28;20206;-89
2021/08/06 08:49:49;;;;;;;2.80;2.17;;;19.70;86.80;;;;;;5048062;28;20180;-89
2021/08/06 08:52:15;;;;;;;2.20;2.00;;;19.70;86.30;;;;;;5058624;28;20197;-89
2021/08/06 08:54:41;;;;;;;2.05;1.90;;;19.70;87.00;;;;;;5060215;28;20192;-90
2021/08/06 08:57:07;;;;;;;2.75;2.13;;;19.70;86.50;;;;;;5057536;28;20208;-90
2021/08/06 08:59:32;;;;;;;2.00;1.90;;;19.60;87.90;;;;;;5056591;28;20216;-90
2021/08/06 09:01:58;;;;;;;3.20;2.20;;;19.50;89.50;;;;;;5033927;28;20553;-90
2021/08/06 09:04:29;;;;;;;2.50;2.10;;;19.30;89.10;;;;;;5046677;28;20183;-89
2021/08/06 09:06:56;;;;;;;2.38;2.17;;;19.40;89.20;;;;;;5039946;28;20192;-90
2021/08/06 09:09:27;;;;;;;2.45;2.25;;;19.20;87.70;;;;;;5046934;28;20613;-90
2021/08/06 09:12:06;;;;;;;2.58;2.28;;;19.30;93.00;;;;;;5030014;28;20183;-89
2021/08/06 09:14:34;;;;;;;4.55;2.53;;;19.50;91.00;;;;;;5039928;28;20710;-90
2021/08/06 09:17:03;;;;;;;4.25;1.95;;;19.50;90.10;;;;;;5039734;28;20273;-90
2021/08/06 09:19:34;;;;;;;2.67;2.47;;;19.70;88.20;;;;;;5058004;28;20226;-89
2021/08/06 09:22:21;;;;;;;1.98;1.88;;;19.60;89.80;;;;;;5053470;28;20177;-89
2021/08/06 09:25:13;;;;;;;2.67;2.22;;;19.70;88.10;;;;;;5059451;28;20194;-89
2021/08/06 09:27:47;;;;;;;2.15;1.98;;;19.70;87.70;;;;;;5060730;28;20629;-89
2021/08/06 09:30:30;;;;;;;2.30;2.10;;;19.80;85.40;;;;;;5042066;28;20199;-89
2021/08/06 09:32:56;;;;;;;2.50;2.30;;;20.00;88.20;;;;;;5058919;28;20801;-88
2021/08/06 09:35:25;;;;;;;2.17;2.00;;;20.40;84.70;;;;;;5047233;28;20192;-88
2021/08/06 09:37:52;;;;;;;2.35;1.80;;;20.60;84.00;;;;;;5058291;28;20203;-89
2021/08/06 09:40:21;;;;;;;4.80;2.25;;;20.80;76.30;;;;;;5060835;28;20184;-89
2021/08/06 09:43:14;;;;;;;3.08;2.30;;;21.20;74.10;;;;;;5039555;28;20192;-90
2021/08/06 09:45:41;;;;;;;6.50;2.10;;;21.30;74.80;;;;;;5047246;28;20187;-87
2021/08/06 09:48:11;;;;;;;2.08;1.85;;;20.80;72.30;;;;;;5051320;28;20729;-89
2021/08/06 09:50:43;;;;;;;3.67;2.42;;;20.80;72.10;;;;;;5068428;28;20206;-89
2021/08/06 09:53:12;;;;;;;4.00;2.13;;;20.60;74.10;;;;;;5057094;28;20196;-90
2021/08/06 09:55:40;;;;;;;3.63;2.20;;;20.30;76.30;;;;;;5058668;28;20207;-89
2021/08/06 09:58:08;;;;;;;3.20;2.28;;;19.90;79.80;;;;;;5036852;28;20222;-89
2021/08/06 10:00:42;;;;;;;4.07;2.40;;;19.70;81.30;;;;;;5054786;28;20209;-89
2021/08/06 10:03:08;;;;;;;2.30;2.10;;;19.60;82.00;;;;;;5058576;28;20221;-89
2021/08/06 10:05:34;;;;;;;3.70;2.40;;;19.70;82.90;;;;;;5071280;28;20242;-89
2021/08/06 10:08:02;;;;;;;3.83;2.00;;;19.70;83.40;;;;;;5075644;28;20206;-89
2021/08/06 10:10:36;;;;;;;3.15;2.15;;;20.00;81.20;;;;;;5023507;28;20192;-89
2021/08/06 10:13:03;;;;;;;3.72;2.00;;;20.00;80.10;;;;;;5059272;28;20240;-90
2021/08/06 10:15:29;;;;;;;1.90;1.65;;;20.30;79.00;;;;;;5075339;28;20172;-90
2021/08/06 10:17:57;;;;;;;1.80;1.70;;;20.40;76.70;;;;;;5070531;28;20290;-90
2021/08/06 10:20:25;;;;;;;3.55;1.85;;;20.50;79.50;;;;;;5061470;28;20180;-89
2021/08/06 10:22:53;;;;;;;2.67;1.85;;;20.50;77.30;;;;;;5060624;28;20615;-90
2021/08/06 10:25:22;;;;;;;3.35;1.98;;;20.60;77.00;;;;;;5058918;28;20207;-89
2021/08/06 10:27:50;;;;;;;2.53;1.90;;;20.80;75.30;;;;;;5056068;28;20218;-90
2021/08/06 10:30:29;;;;;;;2.58;2.00;;;20.70;77.50;;;;;;5049120;28;20187;-89
2021/08/06 10:33:20;;;;;;;3.72;2.10;;;20.70;76.30;;;;;;5039718;28;20271;-90
2021/08/06 10:35:45;;;;;;;4.68;2.00;;;20.50;79.30;;;;;;5044304;28;20297;-90
2021/08/06 10:38:12;;;;;;;3.20;2.00;;;20.30;79.80;;;;;;5071753;28;20203;-90
2021/08/06 10:40:38;;;;;;;2.13;1.92;;;20.40;80.00;;;;;;5022019;28;20815;-90
2021/08/06 10:43:11;;;;;;;6.10;2.00;;;20.90;79.40;;;;;;5054712;28;20183;-89
2021/08/06 10:45:45;;;;;;;1.60;1.50;;;21.10;75.70;;;;;;5036102;28;20543;-90
2021/08/06 10:48:35;;;;;;;2.42;2.00;;;21.10;72.90;;;;;;5055086;28;20257;-90
2021/08/06 10:51:20;;;;;;;2.50;1.70;;;21.50;74.00;;;;;;5043661;28;20271;-89
2021/08/06 10:53:54;;;;;;;1.88;1.70;;;21.50;72.80;;;;;;5054669;28;20188;-90
2021/08/06 10:56:21;;;;;;;2.30;1.75;;;21.80;70.30;;;;;;5059655;28;20207;-90
2021/08/06 10:58:47;;;;;;;1.90;1.80;;;22.10;71.00;;;;;;5055623;28;20196;-89
2021/08/06 11:01:31;;;;;;;2.17;1.98;;;22.20;70.40;;;;;;5054482;28;20180;-90
2021/08/06 11:04:00;;;;;;;3.17;2.03;;;22.40;69.50;;;;;;5054540;28;20209;-91
2021/08/06 11:06:37;;;;;;;4.00;1.90;;;22.60;68.00;;;;;;5058269;28;20193;-90
2021/08/06 11:09:30;;;;;;;2.50;2.10;;;22.50;67.40;;;;;;5041075;28;20206;-90
2021/08/06 11:12:06;;;;;;;2.90;1.75;;;22.50;68.40;;;;;;5045981;28;20297;-90
2021/08/06 11:14:35;;;;;;;2.28;2.05;;;22.90;67.20;;;;;;5058468;28;20199;-90
2021/08/06 11:17:09;;;;;;;2.13;1.90;;;23.10;65.90;;;;;;5054694;28;20217;-90
2021/08/06 11:20:08;;;;;;;3.17;1.80;;;23.10;66.60;;;;;;5036712;28;20223;-90
2021/08/06 11:22:40;;;;;;;2.50;1.98;;;23.10;65.80;;;;;;5050971;28;20180;-90
2021/08/06 11:25:17;;;;;;;1.85;1.60;;;23.30;64.30;;;;;;5036705;28;20203;-90
2021/08/06 11:27:56;;;;;;;3.58;1.80;;;23.70;64.20;;;;;;5060032;28;20229;-91
2021/08/06 11:30:26;;;;;;;2.25;1.70;;;24.00;64.10;;;;;;5025945;28;20177;-91
2021/08/06 11:32:57;;;;;;;1.92;1.52;;;24.00;60.10;;;;;;5060317;28;20194;-91
2021/08/06 11:35:25;;;;;;;2.33;1.70;;;24.10;57.90;;;;;;5052547;28;20177;-91
2021/08/06 11:38:04;;;;;;;2.00;1.65;;;24.20;59.10;;;;;;5058487;28;20207;-91
2021/08/06 11:40:31;;;;;;;1.88;1.77;;;24.00;61.00;;;;;;5026744;28;20243;-91
2021/08/06 11:42:57;;;;;;;2.17;1.98;;;23.90;59.60;;;;;;5063818;28;20191;-90
2021/08/06 11:45:29;;;;;;;4.13;1.77;;;24.10;59.30;;;;;;5038205;28;20196;-91
2021/08/06 11:48:03;;;;;;;1.75;1.65;;;24.60;60.60;;;;;;5053885;28;20215;-91
2021/08/06 11:50:43;;;;;;;2.30;1.60;;;24.40;56.00;;;;;;5054881;28;20195;-91
2021/08/06 11:53:19;;;;;;;3.50;1.90;;;24.60;57.70;;;;;;5051789;28;20191;-92
2021/08/06 11:55:49;;;;;;;2.85;1.77;;;25.20;54.30;;;;;;5056670;28;20678;-91
2021/08/06 11:58:28;;;;;;;7.95;1.80;;;25.30;53.80;;;;;;5036893;28;20192;-91
2021/08/06 12:00:53;;;;;;;4.13;2.03;;;25.00;55.00;;;;;;5057304;28;20187;-91
2021/08/06 12:03:19;;;;;;;3.10;1.90;;;24.20;55.60;;;;;;5045715;28;20256;-90
2021/08/06 12:05:47;;;;;;;2.80;1.80;;;23.70;56.50;;;;;;5020317;28;20200;-90
2021/08/06 12:08:34;;;;;;;2.08;1.60;;;23.70;55.20;;;;;;5060045;28;20216;-90
2021/08/06 12:11:05;;;;;;;2.47;1.83;;;23.30;55.80;;;;;;5054855;28;20188;-90
2021/08/06 12:13:35;;;;;;;2.00;1.90;;;23.40;55.80;;;;;;5051843;28;20242;-91
2021/08/06 12:16:10;;;;;;;2.40;1.85;;;23.60;56.80;;;;;;5033875;28;20216;-90
2021/08/06 12:18:46;;;;;;;3.20;1.88;;;23.60;55.90;;;;;;5027864;28;20226;-91
2021/08/06 12:21:19;;;;;;;3.83;1.85;;;24.30;55.50;;;;;;5037513;28;20697;-90
2021/08/06 12:23:50;;;;;;;3.78;1.95;;;24.40;54.90;;;;;;5045352;28;20208;-91
2021/08/06 12:26:34;;;;;;;4.10;2.08;;;24.40;57.30;;;;;;5054377;28;20196;-91
2021/08/06 12:29:15;;;;;;;1.83;1.73;;;24.00;58.00;;;;;;5047372;28;20212;-90
2021/08/06 12:32:05;;;;;;;2.05;1.90;;;24.30;58.90;;;;;;5061368;28;20199;-90
2021/08/06 12:34:32;;;;;;;3.22;1.90;;;25.10;56.60;;;;;;5042010;28;20219;-91
2021/08/06 12:37:08;;;;;;;2.63;1.80;;;25.00;56.40;;;;;;5034271;28;20238;-91
2021/08/06 12:39:48;;;;;;;2.67;1.80;;;24.70;56.70;;;;;;5044736;28;20242;-91
2021/08/06 12:42:35;;;;;;;2.72;2.00;;;25.10;57.50;;;;;;5047939;28;20562;-91
2021/08/06 12:45:06;;;;;;;2.00;1.83;;;25.60;56.30;;;;;;5056066;28;20555;-91
2021/08/06 12:47:43;;;;;;;3.13;2.10;;;25.40;55.20;;;;;;5041506;28;20195;-91
2021/08/06 12:50:11;;;;;;;3.20;1.92;;;25.30;54.40;;;;;;5044108;28;20265;-91
2021/08/06 12:52:43;;;;;;;3.05;1.90;;;25.30;53.20;;;;;;5069381;28;20192;-91
2021/08/06 12:55:10;;;;;;;2.40;1.90;;;25.00;55.60;;;;;;5059127;28;20180;-91
2021/08/06 12:57:48;;;;;;;3.17;1.98;;;25.00;54.80;;;;;;5041479;28;20611;-91